createdAt,value
2019-01-12T00:00:32.707Z,6.92
2019-01-12T00:03:02.256Z,6.90
2019-01-12T00:05:31.723Z,6.53
2019-01-12T00:08:01.282Z,6.70
2019-01-12T00:10:30.753Z,6.35
2019-01-12T00:13:00.306Z,6.47
2019-01-12T00:15:29.771Z,6.33
2019-01-12T00:17:59.252Z,6.78
2019-01-12T00:20:28.796Z,7.00
2019-01-12T00:22:58.340Z,7.40
2019-01-12T00:25:27.814Z,6.47
2019-01-12T00:27:57.296Z,6.78
2019-01-12T00:30:26.794Z,6.20
2019-01-12T00:32:56.295Z,6.50
2019-01-12T00:35:25.766Z,6.08
2019-01-12T00:37:55.264Z,6.10
2019-01-12T00:40:24.748Z,6.20
2019-01-12T00:42:54.232Z,5.80
2019-01-12T00:45:23.734Z,5.30
2019-01-12T00:47:53.218Z,6.07
2019-01-12T00:50:22.776Z,6.20
2019-01-12T00:52:52.327Z,5.37
2019-01-12T00:55:21.805Z,5.10
2019-01-12T00:57:51.292Z,5.60
2019-01-12T01:00:22.503Z,5.08
2019-01-12T01:02:52.068Z,5.40
2019-01-12T01:05:21.564Z,5.45
2019-01-12T01:07:51.114Z,5.47
2019-01-12T01:10:22.357Z,5.00
2019-01-12T01:12:51.935Z,4.60
2019-01-12T01:15:21.507Z,5.30
2019-01-12T01:17:51.011Z,5.30
2019-01-12T01:20:20.590Z,5.03
2019-01-12T01:22:50.073Z,4.92
2019-01-12T01:25:19.581Z,5.58
2019-01-12T01:27:49.047Z,4.70
2019-01-12T01:30:19.836Z,4.50
2019-01-12T01:32:50.294Z,4.40
2019-01-12T01:35:19.790Z,4.30
2019-01-12T01:37:49.284Z,4.12
2019-01-12T01:40:19.375Z,4.30
2019-01-12T01:42:48.860Z,4.05
2019-01-12T01:45:18.485Z,4.90
2019-01-12T01:47:47.970Z,4.10
2019-01-12T01:50:17.545Z,3.45
2019-01-12T01:52:48.346Z,3.90
2019-01-12T01:55:18.002Z,3.15
2019-01-12T01:57:47.476Z,3.95
2019-01-12T02:00:18.403Z,3.60
2019-01-12T02:02:47.881Z,4.90
2019-01-12T02:05:17.362Z,3.70
2019-01-12T02:07:46.916Z,4.20
2019-01-12T02:10:19.087Z,3.90
2019-01-12T02:12:48.577Z,3.87
2019-01-12T02:15:18.924Z,4.40
2019-01-12T02:17:48.401Z,3.80
2019-01-12T02:20:17.904Z,3.10
2019-01-12T02:22:48.361Z,4.00
2019-01-12T02:25:17.927Z,3.20
2019-01-12T02:27:47.413Z,3.62
2019-01-12T02:30:20.315Z,3.55
2019-01-12T02:32:49.959Z,3.20
2019-01-12T02:35:19.532Z,3.60
2019-01-12T02:37:49.028Z,3.70
2019-01-12T02:40:18.609Z,3.15
2019-01-12T02:42:48.102Z,3.67
2019-01-12T02:45:17.692Z,3.27
2019-01-12T02:47:47.189Z,4.00
2019-01-12T02:50:16.703Z,3.90
2019-01-12T02:52:46.249Z,3.60
2019-01-12T02:55:15.777Z,3.20
2019-01-12T02:57:45.282Z,3.72
2019-01-12T03:00:17.188Z,3.10
2019-01-12T03:02:46.652Z,3.30
2019-01-12T03:05:16.205Z,3.33
2019-01-12T03:07:45.688Z,3.50
2019-01-12T03:10:17.824Z,3.77
2019-01-12T03:12:47.387Z,3.50
2019-01-12T03:15:17.979Z,3.90
2019-01-12T03:17:47.563Z,3.60
2019-01-12T03:20:18.125Z,4.03
2019-01-12T03:22:47.633Z,4.22
2019-01-12T03:25:19.045Z,4.03
2019-01-12T03:27:48.386Z,4.50
2019-01-12T03:30:19.213Z,4.20
2019-01-12T03:32:48.685Z,4.30
2019-01-12T03:35:18.171Z,4.10
2019-01-12T03:37:47.722Z,3.83
2019-01-12T03:40:19.235Z,3.87
2019-01-12T03:42:49.012Z,4.30
2019-01-12T03:45:19.735Z,3.80
2019-01-12T03:47:50.312Z,3.80
2019-01-12T03:50:19.892Z,4.37
2019-01-12T03:52:49.349Z,4.10
2019-01-12T03:55:25.428Z,4.07
2019-01-12T03:57:50.194Z,4.15
2019-01-12T04:00:26.221Z,4.40
2019-01-12T04:02:55.806Z,4.30
2019-01-12T04:05:25.294Z,4.12
2019-01-12T04:07:54.793Z,4.90
2019-01-12T04:10:24.269Z,4.85
2019-01-12T04:12:53.753Z,4.85
2019-01-12T04:15:23.224Z,5.17
2019-01-12T04:17:52.704Z,4.58
2019-01-12T04:20:22.185Z,5.00
2019-01-12T04:22:51.766Z,4.80
2019-01-12T04:25:21.355Z,4.90
2019-01-12T04:27:50.840Z,5.03
2019-01-12T04:30:20.321Z,5.80
2019-01-12T04:32:49.791Z,5.50
2019-01-12T04:35:19.265Z,6.30
2019-01-12T04:37:48.752Z,5.42
2019-01-12T04:40:19.596Z,5.83
2019-01-12T04:42:49.160Z,5.28
2019-01-12T04:45:18.699Z,5.50
2019-01-12T04:47:48.200Z,5.40
2019-01-12T04:50:17.833Z,5.00
2019-01-12T04:52:47.389Z,4.80
2019-01-12T04:55:17.199Z,5.10
2019-01-12T04:57:46.712Z,5.47
2019-01-12T05:00:18.051Z,5.40
2019-01-12T05:02:47.685Z,5.70
2019-01-12T05:05:17.306Z,5.37
2019-01-12T05:07:46.969Z,5.83
2019-01-12T05:10:16.707Z,6.20
2019-01-12T05:12:46.256Z,5.75
2019-01-12T05:15:16.088Z,6.50
2019-01-12T05:17:45.565Z,5.75
2019-01-12T05:20:20.306Z,5.30
2019-01-12T05:22:50.753Z,5.97
2019-01-12T05:25:20.223Z,6.00
2019-01-12T05:27:49.703Z,5.47
2019-01-12T05:30:23.155Z,5.00
2019-01-12T05:32:52.630Z,5.30
2019-01-12T05:35:22.174Z,5.47
2019-01-12T05:37:51.674Z,5.50
2019-01-12T05:40:21.169Z,5.75
2019-01-12T05:42:50.656Z,5.53
2019-01-12T05:45:20.147Z,5.33
2019-01-12T05:47:49.634Z,5.10
2019-01-12T05:50:19.124Z,4.40
2019-01-12T05:52:48.600Z,4.78
2019-01-12T05:55:18.076Z,4.50
2019-01-12T05:57:47.558Z,4.92
2019-01-12T06:00:21.451Z,5.00
2019-01-12T06:02:50.936Z,4.60
2019-01-12T06:05:20.492Z,4.40
2019-01-12T06:07:49.966Z,4.30
2019-01-12T06:10:19.445Z,4.40
2019-01-12T06:12:48.932Z,4.92
2019-01-12T06:15:18.777Z,5.60
2019-01-12T06:17:48.262Z,5.22
2019-01-12T06:20:17.817Z,5.20
2019-01-12T06:22:47.360Z,5.40
2019-01-12T06:25:16.841Z,5.00
2019-01-12T06:27:46.307Z,5.37
2019-01-12T06:30:18.064Z,5.87
2019-01-12T06:32:47.688Z,5.10
2019-01-12T06:35:17.183Z,5.60
2019-01-12T06:37:46.804Z,4.30
2019-01-12T06:40:17.952Z,4.40
2019-01-12T06:42:47.759Z,4.50
2019-01-12T06:45:18.091Z,4.67
2019-01-12T06:47:47.550Z,4.62
2019-01-12T06:50:18.538Z,5.05
2019-01-12T06:52:48.053Z,9.05
2019-01-12T06:55:17.690Z,5.00
2019-01-12T06:57:47.171Z,4.70
2019-01-12T07:00:18.195Z,4.42
2019-01-12T07:02:47.688Z,4.92
2019-01-12T07:05:17.184Z,4.20
2019-01-12T07:07:46.659Z,4.47
2019-01-12T07:10:16.531Z,3.98
2019-01-12T07:12:46.075Z,4.10
2019-01-12T07:15:15.634Z,4.15
2019-01-12T07:17:45.171Z,3.90
2019-01-12T07:20:16.244Z,3.55
2019-01-12T07:22:46.375Z,3.20
2019-01-12T07:25:15.980Z,2.80
2019-01-12T07:27:45.476Z,3.00
2019-01-12T07:30:17.368Z,2.60
2019-01-12T07:32:46.855Z,2.70
2019-01-12T07:35:16.329Z,2.60
2019-01-12T07:37:45.814Z,2.85
2019-01-12T07:40:15.284Z,2.42
2019-01-12T07:42:45.794Z,2.70
2019-01-12T07:45:15.264Z,2.60
2019-01-12T07:47:44.726Z,2.85
2019-01-12T07:50:14.818Z,2.80
2019-01-12T07:52:44.364Z,3.00
2019-01-12T07:55:13.945Z,3.12
2019-01-12T07:57:43.577Z,3.20
2019-01-12T08:00:21.765Z,3.77
2019-01-12T08:02:51.328Z,4.30
2019-01-12T08:05:21.795Z,4.60
2019-01-12T08:07:51.329Z,5.50
2019-01-12T08:10:24.407Z,5.73
2019-01-12T08:12:53.976Z,5.40
2019-01-12T08:15:23.938Z,5.60
2019-01-12T08:17:53.497Z,7.10
2019-01-12T08:20:23.105Z,6.47
2019-01-12T08:22:53.657Z,6.85
2019-01-12T08:25:23.349Z,7.62
2019-01-12T08:27:52.939Z,8.00
2019-01-12T08:30:22.510Z,7.63
2019-01-12T08:32:53.029Z,8.00
2019-01-12T08:35:22.533Z,8.28
2019-01-12T08:37:53.076Z,7.87
2019-01-12T08:40:23.589Z,8.30
2019-01-12T08:42:53.108Z,8.20
2019-01-12T08:45:22.594Z,7.33
2019-01-12T08:47:52.115Z,8.60
2019-01-12T08:50:21.673Z,8.15
2019-01-12T08:52:51.236Z,8.73
2019-01-12T08:55:20.725Z,8.73
2019-01-12T08:57:50.229Z,8.30
2019-01-12T09:00:21.463Z,8.50
2019-01-12T09:02:51.078Z,8.08
2019-01-12T09:05:21.192Z,9.80
2019-01-12T09:07:50.795Z,9.68
2019-01-12T09:10:21.655Z,8.67
2019-01-12T09:12:52.029Z,8.60
2019-01-12T09:15:22.723Z,9.50
2019-01-12T09:17:52.298Z,8.83
2019-01-12T09:20:21.846Z,10.53
2019-01-12T09:22:51.448Z,9.80
2019-01-12T09:25:20.921Z,10.38
2019-01-12T09:27:52.498Z,9.43
2019-01-12T09:30:22.613Z,11.23
2019-01-12T09:32:53.245Z,11.20
2019-01-12T09:35:22.802Z,12.54
2019-01-12T09:37:52.377Z,10.90
2019-01-12T09:40:23.258Z,11.34
2019-01-12T09:42:52.804Z,11.03
2019-01-12T09:45:22.410Z,10.70
2019-01-12T09:47:52.211Z,11.12
2019-01-12T09:50:21.856Z,11.30
2019-01-12T09:52:51.630Z,12.10
2019-01-12T09:55:21.163Z,12.43
2019-01-12T09:57:50.941Z,13.60
2019-01-12T10:00:22.701Z,13.15
2019-01-12T10:02:52.264Z,13.77
2019-01-12T10:05:21.806Z,14.18
2019-01-12T10:07:51.517Z,14.20
2019-01-12T10:10:21.738Z,14.63
2019-01-12T10:12:51.972Z,14.75
2019-01-12T10:15:21.523Z,15.20
2019-01-12T10:17:52.108Z,15.60
2019-01-12T10:20:21.687Z,15.80
2019-01-12T10:22:52.357Z,15.93
2019-01-12T10:25:21.955Z,17.20
2019-01-12T10:27:51.496Z,17.40
2019-01-12T10:30:23.094Z,19.60
2019-01-12T10:32:53.001Z,19.37
2019-01-12T10:35:22.630Z,19.57
2019-01-12T10:37:52.252Z,19.60
2019-01-12T10:40:21.892Z,20.37
2019-01-12T10:42:51.663Z,21.73
2019-01-12T10:45:22.942Z,23.40
2019-01-12T10:47:53.335Z,23.03
2019-01-12T10:50:28.381Z,24.63
2019-01-12T10:52:57.967Z,25.27
2019-01-12T10:55:27.525Z,26.85
2019-01-12T10:57:57.357Z,25.50
2019-01-12T11:00:29.708Z,26.40
2019-01-12T11:02:59.356Z,25.93
2019-01-12T11:05:28.954Z,25.27
2019-01-12T11:07:58.460Z,26.50
2019-01-12T11:10:27.978Z,27.05
2019-01-12T11:12:57.535Z,27.73
2019-01-12T11:15:27.135Z,27.57
2019-01-12T11:17:56.628Z,26.93
2019-01-12T11:20:26.127Z,29.40
2019-01-12T11:22:57.680Z,28.90
2019-01-12T11:25:27.172Z,30.30
2019-01-12T11:27:57.075Z,28.60
2019-01-12T11:30:27.117Z,29.42
2019-01-12T11:32:57.652Z,28.20
2019-01-12T11:35:27.146Z,28.17
2019-01-12T11:37:56.677Z,27.35
2019-01-12T11:40:26.282Z,26.02
2019-01-12T11:42:55.899Z,27.10
2019-01-12T11:45:25.506Z,24.98
2019-01-12T11:47:54.990Z,24.23
2019-01-12T11:50:24.508Z,23.10
2019-01-12T11:52:54.013Z,24.63
2019-01-12T11:55:23.531Z,22.67
2019-01-12T11:57:53.034Z,24.60
2019-01-12T12:00:29.917Z,22.70
2019-01-12T12:03:00.008Z,22.40
2019-01-12T12:05:29.856Z,21.37
2019-01-12T12:07:59.423Z,22.07
2019-01-12T12:10:29.025Z,20.20
2019-01-12T12:12:58.509Z,19.93
2019-01-12T12:15:28.058Z,19.80
2019-01-12T12:17:57.634Z,19.50
2019-01-12T12:20:28.402Z,19.60
2019-01-12T12:22:58.159Z,18.37
2019-01-12T12:25:27.659Z,18.67
2019-01-12T12:27:57.188Z,19.00
2019-01-12T12:30:28.744Z,19.55
2019-01-12T12:32:58.266Z,19.68
2019-01-12T12:35:27.793Z,18.60
2019-01-12T12:37:57.989Z,18.87
2019-01-12T12:40:27.544Z,18.95
2019-01-12T12:42:57.290Z,19.35
2019-01-12T12:45:31.934Z,19.73
2019-01-12T12:48:01.419Z,21.07
2019-01-12T12:50:30.962Z,19.37
2019-01-12T12:53:00.459Z,19.60
2019-01-12T12:55:29.947Z,20.60
2019-01-12T12:57:59.536Z,20.30
2019-01-12T13:00:31.203Z,19.63
2019-01-12T13:03:00.789Z,19.10
2019-01-12T13:05:30.303Z,19.20
2019-01-12T13:08:00.007Z,19.70
2019-01-12T13:10:31.185Z,19.17
2019-01-12T13:13:00.742Z,18.40
2019-01-12T13:15:30.670Z,17.75
2019-01-12T13:18:00.161Z,18.10
2019-01-12T13:20:29.639Z,17.07
2019-01-12T13:22:59.309Z,17.90
2019-01-12T13:25:29.607Z,17.47
2019-01-12T13:27:59.336Z,17.70
2019-01-12T13:30:28.926Z,18.13
2019-01-12T13:32:58.438Z,18.02
2019-01-12T13:35:27.926Z,17.92
2019-01-12T13:37:57.575Z,19.17
2019-01-12T13:40:28.175Z,17.90
2019-01-12T13:42:57.872Z,17.93
2019-01-12T13:45:27.446Z,18.30
2019-01-12T13:47:56.946Z,18.27
2019-01-12T13:50:27.756Z,19.07
2019-01-12T13:52:57.375Z,17.48
2019-01-12T13:55:27.016Z,16.43
2019-01-12T13:57:56.595Z,17.55
2019-01-12T14:00:31.496Z,16.77
2019-01-12T14:03:01.688Z,16.33
2019-01-12T14:05:31.453Z,15.05
2019-01-12T14:08:01.005Z,14.83
2019-01-12T14:10:30.495Z,15.50
2019-01-12T14:12:59.997Z,14.73
2019-01-12T14:15:29.852Z,14.43
2019-01-12T14:17:59.356Z,13.65
2019-01-12T14:20:40.153Z,15.48
2019-01-12T14:23:10.602Z,14.03
2019-01-12T14:25:40.135Z,13.00
2019-01-12T14:28:09.661Z,14.70
2019-01-12T14:30:39.235Z,14.33
2019-01-12T14:33:08.732Z,12.70
2019-01-12T14:35:38.380Z,12.63
2019-01-12T14:38:08.003Z,14.20
2019-01-12T14:40:37.501Z,13.53
2019-01-12T14:43:07.093Z,13.90
2019-01-12T14:45:36.653Z,15.27
2019-01-12T14:48:06.617Z,15.67
2019-01-12T14:50:36.109Z,14.73
2019-01-12T14:53:05.816Z,12.67
2019-01-12T14:55:35.295Z,12.90
2019-01-12T14:58:05.904Z,12.60
2019-01-12T15:00:35.390Z,12.40
2019-01-12T15:03:05.953Z,11.30
2019-01-12T15:05:36.188Z,11.10
2019-01-12T15:48:00.789Z,4.80
2019-01-12T15:50:30.366Z,3.90
2019-01-12T15:53:01.448Z,3.80
2019-01-12T15:55:31.143Z,3.45
2019-01-12T15:58:00.652Z,3.47
2019-01-12T16:00:30.736Z,3.33
2019-01-12T16:03:00.268Z,3.87
2019-01-12T16:05:30.657Z,3.50
2019-01-12T16:08:00.271Z,3.45
2019-01-12T16:10:29.858Z,3.40
2019-01-12T16:12:59.388Z,3.70
2019-01-12T16:15:28.944Z,4.03
2019-01-12T16:17:58.878Z,4.40
2019-01-12T16:20:34.651Z,5.23
2019-01-12T16:23:04.177Z,4.22
2019-01-12T16:25:33.743Z,4.07
2019-01-12T16:28:03.351Z,3.80
2019-01-12T16:30:32.880Z,3.72
2019-01-12T16:33:03.443Z,3.70
2019-01-12T16:35:33.008Z,8.80
2019-01-12T16:38:02.536Z,4.10
2019-01-12T16:40:32.151Z,4.42
2019-01-12T16:43:03.995Z,3.80
2019-01-12T16:45:33.917Z,4.40
2019-01-12T16:48:04.473Z,4.33
2019-01-12T16:50:35.043Z,4.20
2019-01-12T16:53:04.859Z,4.27
2019-01-12T16:55:34.424Z,4.20
2019-01-12T16:58:03.908Z,5.60
2019-01-12T17:00:33.523Z,4.75
2019-01-12T17:03:03.262Z,4.90
2019-01-12T17:05:32.794Z,4.55
2019-01-12T17:08:02.304Z,4.47
2019-01-12T17:10:32.159Z,4.00
2019-01-12T17:13:01.881Z,4.00
2019-01-12T17:15:34.912Z,3.70
2019-01-12T17:18:02.594Z,3.70
2019-01-12T17:20:32.095Z,3.37
2019-01-12T17:23:02.917Z,10.00
2019-01-12T17:25:32.639Z,3.37
2019-01-12T17:28:02.208Z,2.70
2019-01-12T17:30:31.721Z,2.90
2019-01-12T17:33:01.307Z,3.50
2019-01-12T17:35:30.886Z,3.47
2019-01-12T17:38:00.873Z,3.10
2019-01-12T17:40:30.407Z,3.37
2019-01-12T17:43:00.970Z,3.20
2019-01-12T17:45:30.474Z,3.30
2019-01-12T17:48:00.052Z,3.67
2019-01-12T17:50:30.473Z,3.30
2019-01-12T17:52:59.978Z,4.10
2019-01-12T17:55:29.651Z,4.40
2019-01-12T17:57:59.172Z,4.12
2019-01-12T18:00:41.121Z,3.75
2019-01-12T18:03:10.709Z,4.55
2019-01-12T18:05:40.223Z,6.33
2019-01-12T18:08:09.793Z,14.70
2019-01-12T18:10:39.295Z,4.50
2019-01-12T18:13:08.782Z,4.50
2019-01-12T18:15:38.322Z,4.50
2019-01-12T18:18:07.969Z,3.62
2019-01-12T18:20:37.446Z,4.08
2019-01-12T18:23:07.052Z,4.00
2019-01-12T18:25:36.545Z,3.20
2019-01-12T18:28:06.146Z,3.90
2019-01-12T18:30:36.636Z,4.07
2019-01-12T18:33:06.355Z,3.22
2019-01-12T18:35:35.935Z,3.27
2019-01-12T18:38:05.507Z,4.40
2019-01-12T18:40:35.010Z,4.30
2019-01-12T18:43:05.472Z,3.50
2019-01-12T18:45:34.978Z,3.47
2019-01-12T18:48:05.336Z,3.20
2019-01-12T18:50:34.821Z,3.20
2019-01-12T18:53:04.349Z,3.80
2019-01-12T18:55:33.835Z,3.33
2019-01-12T18:58:03.510Z,4.40
2019-01-12T19:00:33.086Z,4.00
2019-01-12T19:03:02.572Z,4.13
2019-01-12T19:05:32.064Z,5.10
2019-01-12T19:08:01.544Z,4.67
2019-01-12T19:10:31.030Z,4.60
2019-01-12T19:13:00.524Z,5.00
2019-01-12T19:15:31.302Z,5.10
2019-01-12T19:18:00.878Z,4.97
2019-01-12T19:20:31.128Z,5.37
2019-01-12T19:23:00.694Z,6.03
2019-01-12T19:25:30.177Z,5.80
2019-01-12T19:27:59.674Z,5.83
2019-01-12T19:30:30.147Z,6.47
2019-01-12T19:32:59.653Z,6.40
2019-01-12T19:35:29.223Z,5.90
2019-01-12T19:37:58.731Z,6.23
2019-01-12T19:40:28.220Z,6.25
2019-01-12T19:42:57.758Z,6.42
2019-01-12T19:45:27.253Z,5.83
2019-01-12T19:47:56.840Z,5.50
2019-01-12T19:50:26.712Z,5.27
2019-01-12T19:52:56.887Z,5.60
2019-01-12T19:55:27.407Z,6.45
2019-01-12T19:57:56.914Z,5.90
2019-01-12T20:00:29.186Z,5.00
2019-01-12T20:02:58.743Z,4.03
2019-01-12T20:05:28.327Z,4.10
2019-01-12T20:07:58.794Z,3.52
2019-01-12T20:10:28.362Z,3.00
2019-01-12T20:12:57.869Z,2.62
2019-01-12T20:15:27.368Z,2.40
2019-01-12T20:17:56.856Z,2.00
2019-01-12T20:20:26.349Z,1.90
2019-01-12T20:22:55.915Z,2.60
2019-01-12T20:25:29.802Z,2.37
2019-01-12T20:28:02.073Z,2.55
2019-01-12T20:30:45.791Z,2.27
2019-01-12T20:33:42.569Z,2.50
2019-01-12T20:36:43.288Z,2.70
2019-01-12T20:39:47.481Z,3.00
2019-01-12T20:42:54.312Z,3.13
2019-01-12T20:45:58.695Z,3.65
2019-01-12T20:48:51.806Z,3.60
2019-01-12T20:51:57.751Z,2.93
2019-01-12T20:55:14.919Z,4.25
2019-01-12T20:58:12.411Z,4.15
2019-01-12T21:01:16.294Z,4.25
2019-01-12T21:04:32.418Z,5.13
2019-01-12T21:07:37.946Z,5.60
2019-01-12T21:10:50.798Z,5.30
2019-01-12T21:14:03.620Z,5.57
2019-01-12T21:16:39.655Z,6.33
2019-01-12T21:19:09.269Z,4.92
2019-01-12T21:21:38.862Z,5.10
2019-01-12T21:24:08.364Z,5.73
2019-01-12T21:26:37.855Z,5.50
2019-01-12T21:29:07.343Z,5.80
2019-01-12T21:31:36.830Z,6.00
2019-01-12T21:34:06.338Z,4.53
2019-01-12T21:36:35.839Z,5.10
2019-01-12T21:39:07.749Z,5.30
2019-01-12T21:41:37.341Z,5.30
2019-01-12T21:44:07.800Z,5.00
2019-01-12T21:46:37.320Z,5.22
2019-01-12T21:49:06.841Z,5.35
2019-01-12T21:51:36.344Z,4.72
2019-01-12T21:54:05.850Z,4.37
2019-01-12T21:56:35.365Z,5.30
2019-01-12T21:59:05.343Z,4.37
2019-01-12T22:01:36.372Z,4.00
2019-01-12T22:04:05.978Z,4.35
2019-01-12T22:06:35.490Z,4.12
2019-01-12T22:09:08.761Z,4.50
2019-01-12T22:11:38.418Z,4.50
2019-01-12T22:14:07.994Z,4.00
2019-01-12T22:16:37.491Z,4.70
2019-01-12T22:19:07.002Z,4.80
2019-01-12T22:21:37.004Z,5.47
2019-01-12T22:24:06.504Z,4.83
2019-01-12T22:26:36.010Z,4.15
2019-01-12T22:29:05.603Z,5.30
2019-01-12T22:31:35.111Z,4.70
2019-01-12T22:34:04.673Z,4.73
2019-01-12T22:36:34.184Z,5.65
2019-01-12T22:39:05.382Z,4.70
2019-01-12T22:41:34.882Z,4.40
2019-01-12T22:44:04.458Z,4.60
2019-01-12T22:46:33.982Z,4.80
2019-01-12T22:49:03.544Z,5.08
2019-01-12T22:51:33.011Z,5.08
2019-01-12T22:54:02.504Z,4.57
2019-01-12T22:56:31.992Z,4.60
2019-01-12T22:59:01.493Z,5.17
2019-01-12T23:01:48.383Z,5.13
2019-01-12T23:04:20.403Z,4.50
2019-01-12T23:06:49.939Z,5.20
2019-01-12T23:09:19.499Z,4.63
2019-01-12T23:11:49.080Z,4.50
2019-01-12T23:14:18.642Z,4.47
2019-01-12T23:16:48.237Z,4.00
2019-01-12T23:19:17.714Z,4.67
2019-01-12T23:21:47.214Z,4.40
2019-01-12T23:24:16.701Z,4.50
2019-01-12T23:26:46.286Z,4.37
2019-01-12T23:29:15.783Z,5.12
2019-01-12T23:31:45.371Z,5.30
2019-01-12T23:34:14.860Z,4.73
2019-01-12T23:36:44.450Z,4.60
2019-01-12T23:39:14.693Z,4.62
2019-01-12T23:41:44.205Z,5.20
2019-01-12T23:44:15.006Z,4.60
2019-01-12T23:46:44.763Z,4.90
2019-01-12T23:49:14.330Z,4.03
2019-01-12T23:51:43.829Z,4.83
2019-01-12T23:54:13.349Z,4.85
2019-01-12T23:56:42.846Z,4.17
2019-01-12T23:59:12.355Z,4.23
